sensor_id;sensor_type;location;lat;lon;timestamp;temperature;humidity
23089;DHT22;11713;48.506;8.966;2023-05-14T00:01:40;11.80;99.90
23089;DHT22;11713;48.506;8.966;2023-05-14T00:04:07;11.80;99.90
23089;DHT22;11713;48.506;8.966;2023-05-14T00:06:34;11.80;99.90
23089;DHT22;11713;48.506;8.966;2023-05-14T00:09:00;11.80;99.90
23089;DHT22;11713;48.506;8.966;2023-05-14T00:11:26;11.70;99.90
23089;DHT22;11713;48.506;8.966;2023-05-14T00:13:52;11.70;99.90
23089;DHT22;11713;48.506;8.966;2023-05-14T00:16:18;11.70;99.90
23089;DHT22;11713;48.506;8.966;2023-05-14T00:18:44;11.70;99.90
23089;DHT22;11713;48.506;8.966;2023-05-14T00:21:09;11.80;99.90
23089;DHT22;11713;48.506;8.966;2023-05-14T00:23:35;11.70;99.90
23089;DHT22;11713;48.506;8.966;2023-05-14T00:26:01;11.80;99.90
23089;DHT22;11713;48.506;8.966;2023-05-14T00:28:27;11.70;99.90
23089;DHT22;11713;48.506;8.966;2023-05-14T00:30:53;11.70;99.90
23089;DHT22;11713;48.506;8.966;2023-05-14T00:33:18;11.80;99.90
23089;DHT22;11713;48.506;8.966;2023-05-14T00:35:44;11.80;99.90
23089;DHT22;11713;48.506;8.966;2023-05-14T00:38:10;11.80;99.90
23089;DHT22;11713;48.506;8.966;2023-05-14T00:40:41;11.80;99.90
23089;DHT22;11713;48.506;8.966;2023-05-14T00:43:10;11.80;99.90
23089;DHT22;11713;48.506;8.966;2023-05-14T00:45:37;11.80;99.90
23089;DHT22;11713;48.506;8.966;2023-05-14T00:48:04;11.70;99.90
23089;DHT22;11713;48.506;8.966;2023-05-14T00:50:30;11.70;99.90
23089;DHT22;11713;48.506;8.966;2023-05-14T00:52:56;11.70;99.90
23089;DHT22;11713;48.506;8.966;2023-05-14T00:55:21;11.60;99.90
23089;DHT22;11713;48.506;8.966;2023-05-14T00:57:49;11.60;99.90
23089;DHT22;11713;48.506;8.966;2023-05-14T01:00:15;11.60;99.90
23089;DHT22;11713;48.506;8.966;2023-05-14T01:02:41;11.60;99.90
23089;DHT22;11713;48.506;8.966;2023-05-14T01:05:08;11.60;99.90
23089;DHT22;11713;48.506;8.966;2023-05-14T01:07:54;11.50;99.90
23089;DHT22;11713;48.506;8.966;2023-05-14T01:10:31;11.50;99.90
23089;DHT22;11713;48.506;8.966;2023-05-14T01:13:03;11.50;99.90
23089;DHT22;11713;48.506;8.966;2023-05-14T01:15:34;11.50;99.90
23089;DHT22;11713;48.506;8.966;2023-05-14T01:18:07;11.50;99.90
23089;DHT22;11713;48.506;8.966;2023-05-14T01:20:33;11.50;99.90
23089;DHT22;11713;48.506;8.966;2023-05-14T01:22:59;11.50;99.90
23089;DHT22;11713;48.506;8.966;2023-05-14T01:25:24;11.50;99.90
23089;DHT22;11713;48.506;8.966;2023-05-14T01:28:08;11.50;99.90
23089;DHT22;11713;48.506;8.966;2023-05-14T01:30:41;11.50;99.90
23089;DHT22;11713;48.506;8.966;2023-05-14T01:33:13;11.50;99.90
23089;DHT22;11713;48.506;8.966;2023-05-14T01:35:40;11.50;99.90
23089;DHT22;11713;48.506;8.966;2023-05-14T01:38:10;11.60;99.90
23089;DHT22;11713;48.506;8.966;2023-05-14T01:40:37;11.50;99.90
23089;DHT22;11713;48.506;8.966;2023-05-14T01:43:04;11.60;99.90
23089;DHT22;11713;48.506;8.966;2023-05-14T01:45:30;11.50;99.90
23089;DHT22;11713;48.506;8.966;2023-05-14T01:47:57;11.50;99.90
23089;DHT22;11713;48.506;8.966;2023-05-14T01:50:24;11.50;99.90
23089;DHT22;11713;48.506;8.966;2023-05-14T01:52:50;11.50;99.90
23089;DHT22;11713;48.506;8.966;2023-05-14T01:55:18;11.50;99.90
23089;DHT22;11713;48.506;8.966;2023-05-14T01:57:44;11.50;99.90
23089;DHT22;11713;48.506;8.966;2023-05-14T02:00:10;11.50;99.90
23089;DHT22;11713;48.506;8.966;2023-05-14T02:02:41;11.60;99.90
23089;DHT22;11713;48.506;8.966;2023-05-14T02:05:10;11.60;99.90
23089;DHT22;11713;48.506;8.966;2023-05-14T02:07:37;11.60;99.90
23089;DHT22;11713;48.506;8.966;2023-05-14T02:10:03;11.60;99.90
23089;DHT22;11713;48.506;8.966;2023-05-14T02:12:29;11.60;99.90
23089;DHT22;11713;48.506;8.966;2023-05-14T02:14:55;11.60;99.90
23089;DHT22;11713;48.506;8.966;2023-05-14T02:17:21;11.60;99.90
23089;DHT22;11713;48.506;8.966;2023-05-14T02:19:46;11.60;99.90
23089;DHT22;11713;48.506;8.966;2023-05-14T02:22:12;11.60;99.90
23089;DHT22;11713;48.506;8.966;2023-05-14T02:24:38;11.60;99.90
23089;DHT22;11713;48.506;8.966;2023-05-14T02:27:04;11.60;99.90
23089;DHT22;11713;48.506;8.966;2023-05-14T02:29:30;11.50;99.90
23089;DHT22;11713;48.506;8.966;2023-05-14T02:31:56;11.60;99.90
23089;DHT22;11713;48.506;8.966;2023-05-14T02:34:22;11.50;99.90
23089;DHT22;11713;48.506;8.966;2023-05-14T02:36:49;11.50;99.90
23089;DHT22;11713;48.506;8.966;2023-05-14T02:39:15;11.50;99.90
23089;DHT22;11713;48.506;8.966;2023-05-14T02:41:44;11.50;99.90
23089;DHT22;11713;48.506;8.966;2023-05-14T02:44:10;11.50;99.90
23089;DHT22;11713;48.506;8.966;2023-05-14T02:46:36;11.50;99.90
23089;DHT22;11713;48.506;8.966;2023-05-14T02:49:01;11.50;99.90
23089;DHT22;11713;48.506;8.966;2023-05-14T02:51:27;11.40;99.90
23089;DHT22;11713;48.506;8.966;2023-05-14T02:53:53;11.40;99.90
23089;DHT22;11713;48.506;8.966;2023-05-14T02:56:19;11.40;99.90
23089;DHT22;11713;48.506;8.966;2023-05-14T02:58:45;11.40;99.90
23089;DHT22;11713;48.506;8.966;2023-05-14T03:01:11;11.40;99.90
23089;DHT22;11713;48.506;8.966;2023-05-14T03:03:37;11.40;99.90
23089;DHT22;11713;48.506;8.966;2023-05-14T03:06:03;11.40;99.90
23089;DHT22;11713;48.506;8.966;2023-05-14T03:08:29;11.40;99.90
23089;DHT22;11713;48.506;8.966;2023-05-14T03:10:55;11.40;99.90
23089;DHT22;11713;48.506;8.966;2023-05-14T03:13:21;11.40;99.90
23089;DHT22;11713;48.506;8.966;2023-05-14T03:15:47;11.40;99.90
23089;DHT22;11713;48.506;8.966;2023-05-14T03:18:13;11.40;99.90
23089;DHT22;11713;48.506;8.966;2023-05-14T03:20:39;11.40;99.90
23089;DHT22;11713;48.506;8.966;2023-05-14T03:23:05;11.40;99.90
23089;DHT22;11713;48.506;8.966;2023-05-14T03:25:31;11.40;99.90
23089;DHT22;11713;48.506;8.966;2023-05-14T03:27:58;11.40;99.90
23089;DHT22;11713;48.506;8.966;2023-05-14T03:30:24;11.50;99.90
23089;DHT22;11713;48.506;8.966;2023-05-14T03:32:50;11.50;99.90
23089;DHT22;11713;48.506;8.966;2023-05-14T03:35:16;11.50;99.90
23089;DHT22;11713;48.506;8.966;2023-05-14T03:37:42;11.50;99.90
23089;DHT22;11713;48.506;8.966;2023-05-14T03:40:08;11.50;99.90
23089;DHT22;11713;48.506;8.966;2023-05-14T03:42:35;11.60;99.90
23089;DHT22;11713;48.506;8.966;2023-05-14T03:45:02;11.60;99.90
23089;DHT22;11713;48.506;8.966;2023-05-14T03:47:28;11.50;99.90
23089;DHT22;11713;48.506;8.966;2023-05-14T03:49:55;11.50;99.90
23089;DHT22;11713;48.506;8.966;2023-05-14T03:52:21;11.50;99.90
23089;DHT22;11713;48.506;8.966;2023-05-14T03:54:47;11.50;99.90
23089;DHT22;11713;48.506;8.966;2023-05-14T03:57:14;11.50;99.90
23089;DHT22;11713;48.506;8.966;2023-05-14T03:59:40;11.50;99.90
23089;DHT22;11713;48.506;8.966;2023-05-14T04:02:06;11.40;99.90
23089;DHT22;11713;48.506;8.966;2023-05-14T04:04:31;11.50;99.90
23089;DHT22;11713;48.506;8.966;2023-05-14T04:06:57;11.50;99.90
23089;DHT22;11713;48.506;8.966;2023-05-14T04:09:24;11.50;99.90
23089;DHT22;11713;48.506;8.966;2023-05-14T04:11:50;11.50;99.90
23089;DHT22;11713;48.506;8.966;2023-05-14T04:14:16;11.50;99.90
23089;DHT22;11713;48.506;8.966;2023-05-14T04:16:43;11.50;99.90
23089;DHT22;11713;48.506;8.966;2023-05-14T04:19:09;11.50;99.90
23089;DHT22;11713;48.506;8.966;2023-05-14T04:21:35;11.50;99.90
23089;DHT22;11713;48.506;8.966;2023-05-14T04:24:01;11.50;99.90
23089;DHT22;11713;48.506;8.966;2023-05-14T04:26:27;11.50;99.90
23089;DHT22;11713;48.506;8.966;2023-05-14T04:28:53;11.50;99.90
23089;DHT22;11713;48.506;8.966;2023-05-14T04:31:19;11.50;99.90
23089;DHT22;11713;48.506;8.966;2023-05-14T04:33:45;11.50;99.90
23089;DHT22;11713;48.506;8.966;2023-05-14T04:36:11;11.50;99.90
23089;DHT22;11713;48.506;8.966;2023-05-14T04:38:37;11.40;99.90
23089;DHT22;11713;48.506;8.966;2023-05-14T04:41:03;11.40;99.90
23089;DHT22;11713;48.506;8.966;2023-05-14T04:43:28;11.40;99.90
23089;DHT22;11713;48.506;8.966;2023-05-14T04:45:54;11.40;99.90
23089;DHT22;11713;48.506;8.966;2023-05-14T04:48:20;11.40;99.90
23089;DHT22;11713;48.506;8.966;2023-05-14T04:50:46;11.40;99.90
23089;DHT22;11713;48.506;8.966;2023-05-14T04:53:12;11.50;99.90
23089;DHT22;11713;48.506;8.966;2023-05-14T04:55:38;11.50;99.90
23089;DHT22;11713;48.506;8.966;2023-05-14T04:58:04;11.50;99.90
23089;DHT22;11713;48.506;8.966;2023-05-14T05:00:29;11.50;99.90
23089;DHT22;11713;48.506;8.966;2023-05-14T05:02:55;11.50;99.90
23089;DHT22;11713;48.506;8.966;2023-05-14T05:05:21;11.50;99.90
23089;DHT22;11713;48.506;8.966;2023-05-14T05:07:47;11.50;99.90
23089;DHT22;11713;48.506;8.966;2023-05-14T05:10:13;11.50;99.90
23089;DHT22;11713;48.506;8.966;2023-05-14T05:12:39;11.50;99.90
23089;DHT22;11713;48.506;8.966;2023-05-14T05:15:05;11.60;99.90
23089;DHT22;11713;48.506;8.966;2023-05-14T05:17:31;11.60;99.90
23089;DHT22;11713;48.506;8.966;2023-05-14T05:19:57;11.60;99.90
23089;DHT22;11713;48.506;8.966;2023-05-14T05:22:23;11.60;99.90
23089;DHT22;11713;48.506;8.966;2023-05-14T05:24:49;11.70;99.90
23089;DHT22;11713;48.506;8.966;2023-05-14T05:27:15;11.70;99.90
23089;DHT22;11713;48.506;8.966;2023-05-14T05:29:43;11.70;99.90
23089;DHT22;11713;48.506;8.966;2023-05-14T05:32:09;11.70;99.90
23089;DHT22;11713;48.506;8.966;2023-05-14T05:34:35;11.70;99.90
23089;DHT22;11713;48.506;8.966;2023-05-14T05:37:01;11.70;99.90
23089;DHT22;11713;48.506;8.966;2023-05-14T05:39:27;11.80;99.90
23089;DHT22;11713;48.506;8.966;2023-05-14T05:42:03;11.80;99.90
23089;DHT22;11713;48.506;8.966;2023-05-14T05:44:29;11.90;99.90
23089;DHT22;11713;48.506;8.966;2023-05-14T05:46:55;11.90;99.90
23089;DHT22;11713;48.506;8.966;2023-05-14T05:49:22;11.90;99.90
23089;DHT22;11713;48.506;8.966;2023-05-14T05:51:48;12.00;99.90
23089;DHT22;11713;48.506;8.966;2023-05-14T05:54:14;12.10;99.90
23089;DHT22;11713;48.506;8.966;2023-05-14T05:56:40;12.10;99.90
23089;DHT22;11713;48.506;8.966;2023-05-14T05:59:05;12.10;99.90
23089;DHT22;11713;48.506;8.966;2023-05-14T06:01:31;12.20;99.90
23089;DHT22;11713;48.506;8.966;2023-05-14T06:03:57;12.20;99.90
23089;DHT22;11713;48.506;8.966;2023-05-14T06:06:23;12.20;99.90
23089;DHT22;11713;48.506;8.966;2023-05-14T06:08:49;12.20;99.90
23089;DHT22;11713;48.506;8.966;2023-05-14T06:11:15;12.30;99.90
23089;DHT22;11713;48.506;8.966;2023-05-14T06:13:41;12.30;99.90
23089;DHT22;11713;48.506;8.966;2023-05-14T06:16:07;12.40;99.90
23089;DHT22;11713;48.506;8.966;2023-05-14T06:18:33;12.40;99.90
23089;DHT22;11713;48.506;8.966;2023-05-14T06:20:59;12.50;99.90
23089;DHT22;11713;48.506;8.966;2023-05-14T06:23:25;12.50;99.90
23089;DHT22;11713;48.506;8.966;2023-05-14T06:25:51;12.50;99.90
23089;DHT22;11713;48.506;8.966;2023-05-14T06:28:17;12.50;99.90
23089;DHT22;11713;48.506;8.966;2023-05-14T06:30:42;12.60;99.90
23089;DHT22;11713;48.506;8.966;2023-05-14T06:33:08;12.60;99.90
23089;DHT22;11713;48.506;8.966;2023-05-14T06:35:34;12.60;99.90
23089;DHT22;11713;48.506;8.966;2023-05-14T06:38:00;12.60;99.90
23089;DHT22;11713;48.506;8.966;2023-05-14T06:40:26;12.70;99.90
23089;DHT22;11713;48.506;8.966;2023-05-14T06:42:51;12.70;99.90
23089;DHT22;11713;48.506;8.966;2023-05-14T06:45:18;12.70;99.90
23089;DHT22;11713;48.506;8.966;2023-05-14T06:47:44;12.60;99.90
23089;DHT22;11713;48.506;8.966;2023-05-14T06:50:10;12.50;99.90
23089;DHT22;11713;48.506;8.966;2023-05-14T06:52:36;12.50;99.90
23089;DHT22;11713;48.506;8.966;2023-05-14T06:55:02;12.50;99.90
23089;DHT22;11713;48.506;8.966;2023-05-14T06:57:28;12.50;99.90
23089;DHT22;11713;48.506;8.966;2023-05-14T06:59:53;12.50;99.90
23089;DHT22;11713;48.506;8.966;2023-05-14T07:02:21;12.60;99.90
23089;DHT22;11713;48.506;8.966;2023-05-14T07:04:47;12.60;99.90
23089;DHT22;11713;48.506;8.966;2023-05-14T07:07:13;12.60;99.90
23089;DHT22;11713;48.506;8.966;2023-05-14T07:09:41;12.60;99.90
23089;DHT22;11713;48.506;8.966;2023-05-14T07:12:07;12.70;99.90
23089;DHT22;11713;48.506;8.966;2023-05-14T07:14:33;12.70;99.90
23089;DHT22;11713;48.506;8.966;2023-05-14T07:17:00;12.70;99.90
23089;DHT22;11713;48.506;8.966;2023-05-14T07:19:26;12.70;99.90
23089;DHT22;11713;48.506;8.966;2023-05-14T07:21:53;12.70;99.90
23089;DHT22;11713;48.506;8.966;2023-05-14T07:24:19;12.70;99.90
23089;DHT22;11713;48.506;8.966;2023-05-14T07:26:44;12.70;99.90
23089;DHT22;11713;48.506;8.966;2023-05-14T07:29:16;12.80;99.90
23089;DHT22;11713;48.506;8.966;2023-05-14T07:31:42;12.80;99.90
23089;DHT22;11713;48.506;8.966;2023-05-14T07:34:08;12.80;99.90
23089;DHT22;11713;48.506;8.966;2023-05-14T07:36:35;12.90;99.90
23089;DHT22;11713;48.506;8.966;2023-05-14T07:39:01;12.90;99.90
23089;DHT22;11713;48.506;8.966;2023-05-14T07:41:27;13.00;99.90
23089;DHT22;11713;48.506;8.966;2023-05-14T07:43:53;13.00;99.90
23089;DHT22;11713;48.506;8.966;2023-05-14T07:46:19;13.00;99.90
23089;DHT22;11713;48.506;8.966;2023-05-14T07:48:45;13.10;99.90
23089;DHT22;11713;48.506;8.966;2023-05-14T07:51:11;13.10;99.90
23089;DHT22;11713;48.506;8.966;2023-05-14T07:53:36;13.20;99.90
23089;DHT22;11713;48.506;8.966;2023-05-14T07:56:02;13.20;99.90
23089;DHT22;11713;48.506;8.966;2023-05-14T07:58:28;13.20;99.90
23089;DHT22;11713;48.506;8.966;2023-05-14T08:00:54;13.30;99.90
23089;DHT22;11713;48.506;8.966;2023-05-14T08:03:21;13.30;99.90
23089;DHT22;11713;48.506;8.966;2023-05-14T08:05:47;13.30;99.90
23089;DHT22;11713;48.506;8.966;2023-05-14T08:08:13;13.40;99.90
23089;DHT22;11713;48.506;8.966;2023-05-14T08:10:38;13.50;99.90
23089;DHT22;11713;48.506;8.966;2023-05-14T08:13:04;13.50;99.90
23089;DHT22;11713;48.506;8.966;2023-05-14T08:15:30;13.60;99.90
23089;DHT22;11713;48.506;8.966;2023-05-14T08:17:56;13.70;99.90
23089;DHT22;11713;48.506;8.966;2023-05-14T08:20:30;13.80;99.90
23089;DHT22;11713;48.506;8.966;2023-05-14T08:22:57;13.90;99.90
23089;DHT22;11713;48.506;8.966;2023-05-14T08:25:23;13.90;99.90
23089;DHT22;11713;48.506;8.966;2023-05-14T08:27:49;13.70;99.90
23089;DHT22;11713;48.506;8.966;2023-05-14T08:30:15;13.80;99.90
23089;DHT22;11713;48.506;8.966;2023-05-14T08:32:42;13.80;99.90
23089;DHT22;11713;48.506;8.966;2023-05-14T08:35:08;13.80;99.90
23089;DHT22;11713;48.506;8.966;2023-05-14T08:37:34;13.80;99.90
23089;DHT22;11713;48.506;8.966;2023-05-14T08:40:00;13.80;99.90
23089;DHT22;11713;48.506;8.966;2023-05-14T08:42:27;13.80;99.90
23089;DHT22;11713;48.506;8.966;2023-05-14T08:45:00;13.90;99.90
23089;DHT22;11713;48.506;8.966;2023-05-14T08:47:28;13.90;99.90
23089;DHT22;11713;48.506;8.966;2023-05-14T08:50:06;13.90;99.90
23089;DHT22;11713;48.506;8.966;2023-05-14T08:52:34;13.90;99.90
23089;DHT22;11713;48.506;8.966;2023-05-14T08:55:05;13.90;99.90
23089;DHT22;11713;48.506;8.966;2023-05-14T08:57:33;13.90;99.90
23089;DHT22;11713;48.506;8.966;2023-05-14T09:00:01;14.00;99.90
23089;DHT22;11713;48.506;8.966;2023-05-14T09:02:31;14.00;99.90
23089;DHT22;11713;48.506;8.966;2023-05-14T09:05:01;14.10;99.90
23089;DHT22;11713;48.506;8.966;2023-05-14T09:07:28;14.10;99.90
23089;DHT22;11713;48.506;8.966;2023-05-14T09:09:55;14.20;99.90
23089;DHT22;11713;48.506;8.966;2023-05-14T09:12:22;14.30;99.90
23089;DHT22;11713;48.506;8.966;2023-05-14T09:14:49;14.40;99.90
23089;DHT22;11713;48.506;8.966;2023-05-14T09:17:16;14.40;99.90
23089;DHT22;11713;48.506;8.966;2023-05-14T09:19:43;14.50;99.90
23089;DHT22;11713;48.506;8.966;2023-05-14T09:22:18;14.50;99.90
23089;DHT22;11713;48.506;8.966;2023-05-14T09:24:44;14.50;99.90
23089;DHT22;11713;48.506;8.966;2023-05-14T09:27:18;14.60;99.90
23089;DHT22;11713;48.506;8.966;2023-05-14T09:29:46;14.50;99.90
23089;DHT22;11713;48.506;8.966;2023-05-14T09:32:11;14.50;99.90
23089;DHT22;11713;48.506;8.966;2023-05-14T09:34:38;14.60;99.90
23089;DHT22;11713;48.506;8.966;2023-05-14T09:37:06;14.60;99.90
23089;DHT22;11713;48.506;8.966;2023-05-14T09:39:33;14.70;99.90
23089;DHT22;11713;48.506;8.966;2023-05-14T09:42:01;14.80;99.90
23089;DHT22;11713;48.506;8.966;2023-05-14T09:44:27;14.90;99.90
23089;DHT22;11713;48.506;8.966;2023-05-14T09:46:53;15.00;99.90
23089;DHT22;11713;48.506;8.966;2023-05-14T09:49:20;15.10;99.90
23089;DHT22;11713;48.506;8.966;2023-05-14T09:51:50;15.30;99.90
23089;DHT22;11713;48.506;8.966;2023-05-14T09:54:17;15.40;99.90
23089;DHT22;11713;48.506;8.966;2023-05-14T09:56:43;15.60;99.90
23089;DHT22;11713;48.506;8.966;2023-05-14T09:59:09;15.60;99.90
23089;DHT22;11713;48.506;8.966;2023-05-14T10:01:35;15.60;99.90
23089;DHT22;11713;48.506;8.966;2023-05-14T10:04:03;15.70;99.90
23089;DHT22;11713;48.506;8.966;2023-05-14T10:06:35;15.90;99.90
23089;DHT22;11713;48.506;8.966;2023-05-14T10:09:03;16.10;99.90
23089;DHT22;11713;48.506;8.966;2023-05-14T10:11:36;16.20;99.90
23089;DHT22;11713;48.506;8.966;2023-05-14T10:14:25;16.40;99.90
23089;DHT22;11713;48.506;8.966;2023-05-14T10:16:55;16.60;99.90
23089;DHT22;11713;48.506;8.966;2023-05-14T10:19:23;16.80;99.90
23089;DHT22;11713;48.506;8.966;2023-05-14T10:21:55;16.80;99.90
23089;DHT22;11713;48.506;8.966;2023-05-14T10:24:23;16.70;99.90
23089;DHT22;11713;48.506;8.966;2023-05-14T10:26:54;16.90;99.90
23089;DHT22;11713;48.506;8.966;2023-05-14T10:29:36;17.20;99.90
23089;DHT22;11713;48.506;8.966;2023-05-14T10:32:10;17.50;99.90
23089;DHT22;11713;48.506;8.966;2023-05-14T10:34:42;17.50;99.90
23089;DHT22;11713;48.506;8.966;2023-05-14T10:37:11;17.80;99.90
23089;DHT22;11713;48.506;8.966;2023-05-14T10:39:49;17.80;99.90
23089;DHT22;11713;48.506;8.966;2023-05-14T10:45:06;18.00;99.90
23089;DHT22;11713;48.506;8.966;2023-05-14T10:47:34;18.10;99.90
23089;DHT22;11713;48.506;8.966;2023-05-14T10:50:03;18.30;99.90
23089;DHT22;11713;48.506;8.966;2023-05-14T10:52:30;18.60;99.90
23089;DHT22;11713;48.506;8.966;2023-05-14T10:54:59;18.40;99.90
23089;DHT22;11713;48.506;8.966;2023-05-14T10:57:27;18.60;99.90
23089;DHT22;11713;48.506;8.966;2023-05-14T10:59:54;18.70;99.90
23089;DHT22;11713;48.506;8.966;2023-05-14T11:02:23;18.90;99.90
23089;DHT22;11713;48.506;8.966;2023-05-14T11:07:26;18.90;99.90
23089;DHT22;11713;48.506;8.966;2023-05-14T11:09:52;18.70;99.90
23089;DHT22;11713;48.506;8.966;2023-05-14T11:12:20;18.40;99.90
23089;DHT22;11713;48.506;8.966;2023-05-14T11:14:46;18.20;99.90
23089;DHT22;11713;48.506;8.966;2023-05-14T11:17:12;18.20;99.90
23089;DHT22;11713;48.506;8.966;2023-05-14T11:19:42;18.20;99.90
23089;DHT22;11713;48.506;8.966;2023-05-14T11:22:08;18.00;99.90
23089;DHT22;11713;48.506;8.966;2023-05-14T11:24:34;18.10;99.90
23089;DHT22;11713;48.506;8.966;2023-05-14T11:27:00;18.10;99.90
23089;DHT22;11713;48.506;8.966;2023-05-14T11:29:25;18.10;99.90
23089;DHT22;11713;48.506;8.966;2023-05-14T11:31:51;18.00;99.90
23089;DHT22;11713;48.506;8.966;2023-05-14T11:34:17;18.00;99.90
23089;DHT22;11713;48.506;8.966;2023-05-14T11:36:43;18.10;99.90
23089;DHT22;11713;48.506;8.966;2023-05-14T11:39:16;18.50;99.90
23089;DHT22;11713;48.506;8.966;2023-05-14T11:41:44;18.80;99.90
23089;DHT22;11713;48.506;8.966;2023-05-14T11:44:10;18.80;99.90
23089;DHT22;11713;48.506;8.966;2023-05-14T11:46:36;18.60;99.90
23089;DHT22;11713;48.506;8.966;2023-05-14T11:49:05;18.50;99.90
23089;DHT22;11713;48.506;8.966;2023-05-14T11:51:32;18.20;99.90
23089;DHT22;11713;48.506;8.966;2023-05-14T11:53:57;17.90;99.90
23089;DHT22;11713;48.506;8.966;2023-05-14T11:56:23;17.70;99.90
23089;DHT22;11713;48.506;8.966;2023-05-14T11:58:55;17.70;99.90
23089;DHT22;11713;48.506;8.966;2023-05-14T12:01:22;17.30;99.90
23089;DHT22;11713;48.506;8.966;2023-05-14T12:03:49;17.30;99.90
23089;DHT22;11713;48.506;8.966;2023-05-14T12:06:15;17.40;99.90
23089;DHT22;11713;48.506;8.966;2023-05-14T12:08:40;17.30;99.90
23089;DHT22;11713;48.506;8.966;2023-05-14T12:11:08;17.50;99.90
23089;DHT22;11713;48.506;8.966;2023-05-14T12:13:35;17.60;99.90
23089;DHT22;11713;48.506;8.966;2023-05-14T12:16:01;17.70;99.90
23089;DHT22;11713;48.506;8.966;2023-05-14T12:18:29;17.90;99.90
23089;DHT22;11713;48.506;8.966;2023-05-14T12:21:01;17.90;99.90
23089;DHT22;11713;48.506;8.966;2023-05-14T12:23:31;18.00;99.90
23089;DHT22;11713;48.506;8.966;2023-05-14T12:26:01;18.10;99.90
23089;DHT22;11713;48.506;8.966;2023-05-14T12:28:28;18.00;99.90
23089;DHT22;11713;48.506;8.966;2023-05-14T12:30:57;18.10;99.90
23089;DHT22;11713;48.506;8.966;2023-05-14T12:33:27;18.10;99.90
23089;DHT22;11713;48.506;8.966;2023-05-14T12:35:53;17.90;99.90
23089;DHT22;11713;48.506;8.966;2023-05-14T12:38:22;17.90;99.90
23089;DHT22;11713;48.506;8.966;2023-05-14T12:40:47;17.80;99.90
23089;DHT22;11713;48.506;8.966;2023-05-14T12:43:13;17.80;99.90
23089;DHT22;11713;48.506;8.966;2023-05-14T12:45:39;17.80;99.90
23089;DHT22;11713;48.506;8.966;2023-05-14T12:48:05;17.70;99.90
23089;DHT22;11713;48.506;8.966;2023-05-14T12:50:31;17.80;99.90
23089;DHT22;11713;48.506;8.966;2023-05-14T12:52:57;17.80;99.90
23089;DHT22;11713;48.506;8.966;2023-05-14T12:55:23;18.00;99.90
23089;DHT22;11713;48.506;8.966;2023-05-14T12:57:48;18.30;99.90
23089;DHT22;11713;48.506;8.966;2023-05-14T13:00:14;18.80;99.90
23089;DHT22;11713;48.506;8.966;2023-05-14T13:02:40;19.10;99.90
23089;DHT22;11713;48.506;8.966;2023-05-14T13:05:07;19.30;99.90
23089;DHT22;11713;48.506;8.966;2023-05-14T13:07:32;18.40;99.90
23089;DHT22;11713;48.506;8.966;2023-05-14T13:09:58;17.80;99.90
23089;DHT22;11713;48.506;8.966;2023-05-14T13:12:24;17.60;99.90
23089;DHT22;11713;48.506;8.966;2023-05-14T13:14:50;17.40;99.90
23089;DHT22;11713;48.506;8.966;2023-05-14T13:17:15;17.30;99.90
23089;DHT22;11713;48.506;8.966;2023-05-14T13:19:41;17.20;99.90
23089;DHT22;11713;48.506;8.966;2023-05-14T13:22:07;17.10;99.90
23089;DHT22;11713;48.506;8.966;2023-05-14T13:24:33;17.00;99.90
23089;DHT22;11713;48.506;8.966;2023-05-14T13:26:59;16.90;99.90
23089;DHT22;11713;48.506;8.966;2023-05-14T13:29:25;16.90;99.90
23089;DHT22;11713;48.506;8.966;2023-05-14T13:31:53;16.80;99.90
23089;DHT22;11713;48.506;8.966;2023-05-14T13:34:19;16.80;99.90
23089;DHT22;11713;48.506;8.966;2023-05-14T13:36:45;16.50;99.90
23089;DHT22;11713;48.506;8.966;2023-05-14T13:39:12;16.10;99.90
23089;DHT22;11713;48.506;8.966;2023-05-14T13:41:38;15.90;99.90
23089;DHT22;11713;48.506;8.966;2023-05-14T13:44:04;15.80;99.90
23089;DHT22;11713;48.506;8.966;2023-05-14T13:46:29;15.80;99.90
23089;DHT22;11713;48.506;8.966;2023-05-14T13:48:55;15.80;99.90
23089;DHT22;11713;48.506;8.966;2023-05-14T13:51:22;15.60;99.90
23089;DHT22;11713;48.506;8.966;2023-05-14T13:53:48;15.60;99.90
23089;DHT22;11713;48.506;8.966;2023-05-14T13:56:14;15.70;99.90
23089;DHT22;11713;48.506;8.966;2023-05-14T13:58:40;15.70;99.90
23089;DHT22;11713;48.506;8.966;2023-05-14T14:01:06;15.80;99.90
23089;DHT22;11713;48.506;8.966;2023-05-14T14:03:32;15.80;99.90
23089;DHT22;11713;48.506;8.966;2023-05-14T14:05:58;15.80;99.90
23089;DHT22;11713;48.506;8.966;2023-05-14T14:08:23;15.90;99.90
23089;DHT22;11713;48.506;8.966;2023-05-14T14:10:49;16.10;99.90
23089;DHT22;11713;48.506;8.966;2023-05-14T14:13:15;16.40;99.90
23089;DHT22;11713;48.506;8.966;2023-05-14T14:15:41;16.60;99.90
23089;DHT22;11713;48.506;8.966;2023-05-14T14:18:08;16.60;99.90
23089;DHT22;11713;48.506;8.966;2023-05-14T14:20:34;16.60;99.90
23089;DHT22;11713;48.506;8.966;2023-05-14T14:22:59;16.60;99.90
23089;DHT22;11713;48.506;8.966;2023-05-14T14:25:25;16.60;99.90
23089;DHT22;11713;48.506;8.966;2023-05-14T14:27:51;16.50;99.90
23089;DHT22;11713;48.506;8.966;2023-05-14T14:30:17;16.40;99.90
23089;DHT22;11713;48.506;8.966;2023-05-14T14:32:47;16.30;99.90
23089;DHT22;11713;48.506;8.966;2023-05-14T14:35:16;16.30;99.90
23089;DHT22;11713;48.506;8.966;2023-05-14T14:37:42;16.20;99.90
23089;DHT22;11713;48.506;8.966;2023-05-14T14:40:13;16.20;99.90
23089;DHT22;11713;48.506;8.966;2023-05-14T14:42:39;16.10;99.90
23089;DHT22;11713;48.506;8.966;2023-05-14T14:45:05;16.10;99.90
23089;DHT22;11713;48.506;8.966;2023-05-14T14:47:31;16.10;99.90
23089;DHT22;11713;48.506;8.966;2023-05-14T14:49:57;16.00;99.90
23089;DHT22;11713;48.506;8.966;2023-05-14T14:52:24;16.10;99.90
23089;DHT22;11713;48.506;8.966;2023-05-14T14:54:50;16.10;99.90
23089;DHT22;11713;48.506;8.966;2023-05-14T14:57:16;16.10;99.90
23089;DHT22;11713;48.506;8.966;2023-05-14T14:59:42;16.00;99.90
23089;DHT22;11713;48.506;8.966;2023-05-14T15:02:08;15.90;99.90
23089;DHT22;11713;48.506;8.966;2023-05-14T15:04:34;15.90;99.90
23089;DHT22;11713;48.506;8.966;2023-05-14T15:07:01;15.90;99.90
23089;DHT22;11713;48.506;8.966;2023-05-14T15:09:27;15.90;99.90
23089;DHT22;11713;48.506;8.966;2023-05-14T15:11:52;15.90;99.90
23089;DHT22;11713;48.506;8.966;2023-05-14T15:14:18;15.90;99.90
23089;DHT22;11713;48.506;8.966;2023-05-14T15:16:44;15.90;99.90
23089;DHT22;11713;48.506;8.966;2023-05-14T15:19:10;15.90;99.90
23089;DHT22;11713;48.506;8.966;2023-05-14T15:21:35;15.90;99.90
23089;DHT22;11713;48.506;8.966;2023-05-14T15:24:02;15.90;99.90
23089;DHT22;11713;48.506;8.966;2023-05-14T15:26:29;15.90;99.90
23089;DHT22;11713;48.506;8.966;2023-05-14T15:28:55;15.80;99.90
23089;DHT22;11713;48.506;8.966;2023-05-14T15:31:20;15.80;99.90
23089;DHT22;11713;48.506;8.966;2023-05-14T15:33:46;15.90;99.90